福島 の空港の天気 - METARとTAF

福島空港 ( RJSF / FKS ) - 福島県玉川村
飛行場実況気象(Metar)
観測時間08/17 12:00 JST (08/17 03:00 UTC)
風向・風速北東 2m/s
視程10km以上
天気現象
少しの雲 雲底高度 370m
全天の4割程度の雲 雲底高度 460m
全天の8割程度の雲 雲底高度 910m
気温26℃
湿度84%
気圧1011hPa
METARRJSF 170300Z 04003KT 360V150 9999 FEW012 SCT015 BKN030 26/23 Q1011
過去の天気等 Google飛行場航空写真 Wunderground天気予報

過去48時間のMETAR

飛行場予報(TAF)
発表時間: 8/17 08:06 JST (8/16 23:06 UTC)
予報対象時間: 17日9時 JST ~ 18日15時 JST
風向・風速北 2m/s
視程3,000m
天気現象弱い雨 もや
少しの雲 雲底高度 60m
全天の8割程度の雲 雲底高度 150m
全天の8割程度の雲 雲底高度 240m
17日10時 JST ~ 17日12時 JST に徐々に
風向・風速南南東 3m/s
視程10km以上
天気現象運行に影響にある天気現象が終了
少しの雲 雲底高度 610m
全天の8割程度の雲 雲底高度 910m
17日15時 JST ~ 17日18時 JST に一時的に
視程4,000m
天気現象しゅう雨 もや
18日3時 JST ~ 18日12時 JST に一時的に
視程3,000m
天気現象しゅう雨 もや
少しの雲 雲底高度 60m
全天の8割程度の雲 雲底高度 150m
全天の8割程度の雲 雲底高度 240m
18日12時 JST ~ 18日15時 JST に徐々に
風向・風速北北西 4m/s
TAF RJSF 162306Z 1700/1806 36004KT 3000 -RA BR FEW002 BKN005 BKN008
BECMG 1701/1703 16005KT 9999 NSW FEW020 BKN030
TEMPO 1706/1709 4000 SHRA BR
TEMPO 1718/1803 3000 SHRA BR FEW002 BKN005 BKN008
BECMG 1803/1806 34008KT
日本の空港のMETAR・TAFへのリンク

RJTT 東京国際空港
RJAA 新東京国際空港
RJBB 関西国際空港
RJOO 大阪空港
RJGG 中部国際空港
RJCC 新千歳空港
RJFF 福岡空港
ROAH 那覇空港


RJEC 旭川空港
RJCH 函館空港
RJCK 釧路空港
RJCM 女満別空港
RJCB 帯広空港
RJSA 青森空港
RJSS 仙台空港
RJSK 秋田空港
RJSF 福島空港
RJAH 茨城空港
RJSN 新潟空港
RJNT 富山空港
RJNK 小松飛行場
RJNS 静岡空港
RJOH 美保飛行場
RJOC 出雲空港
RJOB 岡山空港
RJOA 広島空港
RJOI 岩国飛行場
RJOT 高松空港
RJOM 松山空港
RJOK 高知空港
RJFR 北九州空港
RJFT 熊本空港
RJFU 長崎空港
RJFS 佐賀空港
RJFO 大分空港
RJFM 宮崎空港
RJFK 鹿児島空港
ROIG 石垣島空港
RJTY 横田飛行場
ROTM 普天間飛行場
RODN 嘉手納飛行場